sensor_id;sensor_type;location;lat;lon;timestamp;P1;durP1;ratioP1;P2;durP2;ratioP2
67132;SDS011;54052;53.542;49.408;2023-04-08T00:00:43;16.38;;;4.60;;
67132;SDS011;54052;53.542;49.408;2023-04-08T00:03:10;18.90;;;5.25;;
67132;SDS011;54052;53.542;49.408;2023-04-08T00:05:36;28.45;;;5.28;;
67132;SDS011;54052;53.542;49.408;2023-04-08T00:08:03;12.52;;;4.45;;
67132;SDS011;54052;53.542;49.408;2023-04-08T00:10:31;16.95;;;5.53;;
67132;SDS011;54052;53.542;49.408;2023-04-08T00:12:57;15.13;;;5.28;;
67132;SDS011;54052;53.542;49.408;2023-04-08T00:15:25;15.85;;;5.25;;
67132;SDS011;54052;53.542;49.408;2023-04-08T00:17:52;13.38;;;4.45;;
67132;SDS011;54052;53.542;49.408;2023-04-08T00:20:22;17.17;;;4.50;;
67132;SDS011;54052;53.542;49.408;2023-04-08T00:22:49;10.45;;;4.30;;
67132;SDS011;54052;53.542;49.408;2023-04-08T00:25:15;13.52;;;4.20;;
67132;SDS011;54052;53.542;49.408;2023-04-08T00:27:41;17.35;;;5.60;;
67132;SDS011;54052;53.542;49.408;2023-04-08T00:30:08;14.48;;;5.22;;
67132;SDS011;54052;53.542;49.408;2023-04-08T00:32:35;13.88;;;4.65;;
67132;SDS011;54052;53.542;49.408;2023-04-08T00:35:01;17.95;;;5.78;;
67132;SDS011;54052;53.542;49.408;2023-04-08T00:37:27;13.00;;;5.00;;
67132;SDS011;54052;53.542;49.408;2023-04-08T00:39:54;17.85;;;6.20;;
67132;SDS011;54052;53.542;49.408;2023-04-08T00:42:20;23.90;;;7.55;;
67132;SDS011;54052;53.542;49.408;2023-04-08T00:44:47;25.02;;;8.05;;
67132;SDS011;54052;53.542;49.408;2023-04-08T00:47:13;26.38;;;8.48;;
67132;SDS011;54052;53.542;49.408;2023-04-08T00:49:41;37.90;;;14.43;;
67132;SDS011;54052;53.542;49.408;2023-04-08T00:52:08;20.90;;;7.93;;
67132;SDS011;54052;53.542;49.408;2023-04-08T00:54:36;20.80;;;7.07;;
67132;SDS011;54052;53.542;49.408;2023-04-08T00:57:03;18.70;;;6.05;;
67132;SDS011;54052;53.542;49.408;2023-04-08T00:59:31;26.10;;;7.60;;
67132;SDS011;54052;53.542;49.408;2023-04-08T01:02:01;25.65;;;8.40;;
67132;SDS011;54052;53.542;49.408;2023-04-08T01:07:52;22.00;;;9.52;;
67132;SDS011;54052;53.542;49.408;2023-04-08T01:10:22;32.55;;;12.05;;
67132;SDS011;54052;53.542;49.408;2023-04-08T01:12:57;33.95;;;11.57;;
67132;SDS011;54052;53.542;49.408;2023-04-08T01:15:27;32.42;;;12.52;;
67132;SDS011;54052;53.542;49.408;2023-04-08T01:17:54;25.92;;;11.77;;
67132;SDS011;54052;53.542;49.408;2023-04-08T01:20:24;29.35;;;10.50;;
67132;SDS011;54052;53.542;49.408;2023-04-08T01:25:21;28.75;;;10.65;;
67132;SDS011;54052;53.542;49.408;2023-04-08T01:27:50;26.77;;;9.50;;
67132;SDS011;54052;53.542;49.408;2023-04-08T01:30:21;35.85;;;9.48;;
67132;SDS011;54052;53.542;49.408;2023-04-08T01:32:50;25.50;;;9.75;;
67132;SDS011;54052;53.542;49.408;2023-04-08T01:35:20;37.28;;;10.10;;
67132;SDS011;54052;53.542;49.408;2023-04-08T01:37:48;25.92;;;8.70;;
67132;SDS011;54052;53.542;49.408;2023-04-08T01:40:16;33.30;;;9.18;;
67132;SDS011;54052;53.542;49.408;2023-04-08T01:42:47;32.30;;;8.82;;
67132;SDS011;54052;53.542;49.408;2023-04-08T01:45:15;33.45;;;9.00;;
67132;SDS011;54052;53.542;49.408;2023-04-08T01:47:43;37.72;;;9.07;;
67132;SDS011;54052;53.542;49.408;2023-04-08T01:50:12;24.45;;;7.78;;
67132;SDS011;54052;53.542;49.408;2023-04-08T01:52:40;25.35;;;7.95;;
67132;SDS011;54052;53.542;49.408;2023-04-08T01:55:09;23.20;;;6.90;;
67132;SDS011;54052;53.542;49.408;2023-04-08T01:57:36;22.55;;;6.90;;
67132;SDS011;54052;53.542;49.408;2023-04-08T02:00:07;23.13;;;6.88;;
67132;SDS011;54052;53.542;49.408;2023-04-08T02:02:36;21.38;;;6.80;;
67132;SDS011;54052;53.542;49.408;2023-04-08T02:05:04;24.48;;;7.32;;
67132;SDS011;54052;53.542;49.408;2023-04-08T02:07:30;18.30;;;6.68;;
67132;SDS011;54052;53.542;49.408;2023-04-08T02:09:57;30.10;;;8.32;;
67132;SDS011;54052;53.542;49.408;2023-04-08T02:12:23;25.15;;;7.55;;
67132;SDS011;54052;53.542;49.408;2023-04-08T02:14:51;19.95;;;7.70;;
67132;SDS011;54052;53.542;49.408;2023-04-08T02:17:20;22.27;;;7.32;;
67132;SDS011;54052;53.542;49.408;2023-04-08T02:20:07;32.50;;;7.43;;
67132;SDS011;54052;53.542;49.408;2023-04-08T02:22:43;21.60;;;6.85;;
67132;SDS011;54052;53.542;49.408;2023-04-08T02:25:15;18.58;;;6.10;;
67132;SDS011;54052;53.542;49.408;2023-04-08T02:27:44;19.85;;;6.25;;
67132;SDS011;54052;53.542;49.408;2023-04-08T02:30:13;21.52;;;6.07;;
